createdAt,value
2023-09-03T00:03:26.613Z,23.77
2023-09-03T00:09:14.081Z,30.73
2023-09-03T00:15:00.896Z,28.63
2023-09-03T00:20:57.320Z,21.23
2023-09-03T00:26:47.071Z,28.35
2023-09-03T00:32:33.965Z,27.17
2023-09-03T00:38:21.302Z,24.20
2023-09-03T00:44:08.579Z,27.23
2023-09-03T00:49:55.764Z,31.90
2023-09-03T00:55:44.437Z,31.20
2023-09-03T01:01:31.727Z,26.10
2023-09-03T01:07:23.949Z,30.95
2023-09-03T01:13:25.302Z,23.50
2023-09-03T01:19:56.579Z,35.38
2023-09-03T01:25:49.020Z,24.27
2023-09-03T01:31:37.519Z,36.38
2023-09-03T01:37:24.814Z,29.80
2023-09-03T01:43:11.666Z,22.15
2023-09-03T01:49:26.272Z,35.00
2023-09-03T01:55:16.750Z,27.95
2023-09-03T02:01:04.393Z,27.95
2023-09-03T02:06:51.417Z,25.58
2023-09-03T02:12:38.521Z,18.55
2023-09-03T02:18:25.422Z,21.15
2023-09-03T02:24:12.571Z,27.58
2023-09-03T02:30:06.249Z,23.25
2023-09-03T02:35:53.530Z,25.15
2023-09-03T02:41:40.582Z,26.23
2023-09-03T02:47:28.348Z,21.52
2023-09-03T02:53:15.039Z,20.02
2023-09-03T02:59:01.732Z,21.85
2023-09-03T03:04:48.591Z,26.85
2023-09-03T03:10:35.661Z,20.35
2023-09-03T03:16:22.676Z,22.80
2023-09-03T03:22:13.493Z,22.38
2023-09-03T03:28:00.489Z,24.88
2023-09-03T03:33:48.826Z,21.40
2023-09-03T03:39:38.216Z,25.05
2023-09-03T03:45:26.656Z,33.67
2023-09-03T03:51:14.317Z,24.35
2023-09-03T03:57:01.525Z,24.55
2023-09-03T04:02:48.390Z,24.58
2023-09-03T04:08:37.675Z,21.70
2023-09-03T04:14:24.435Z,21.85
2023-09-03T04:20:12.365Z,32.05
2023-09-03T04:25:59.751Z,32.95
2023-09-03T04:31:49.407Z,27.27
2023-09-03T04:37:36.199Z,31.50
2023-09-03T04:43:24.287Z,24.13
2023-09-03T04:49:13.319Z,27.83
2023-09-03T04:55:00.108Z,21.10
2023-09-03T05:00:47.202Z,27.67
2023-09-03T05:06:34.336Z,28.20
2023-09-03T05:12:21.356Z,34.20
2023-09-03T05:18:08.114Z,34.90
2023-09-03T05:23:55.681Z,39.13
2023-09-03T05:29:42.956Z,34.28
2023-09-03T05:35:30.763Z,59.90
2023-09-03T05:41:17.710Z,44.55
2023-09-03T05:47:05.069Z,53.70
2023-09-03T05:52:52.516Z,70.60
2023-09-03T05:58:39.874Z,29.70
2023-09-03T06:04:28.749Z,66.38
2023-09-03T06:10:16.023Z,57.42
2023-09-03T06:16:05.651Z,32.50
2023-09-03T06:21:52.355Z,54.47
2023-09-03T06:27:39.256Z,65.30
2023-09-03T06:33:26.216Z,74.88
2023-09-03T06:39:14.683Z,59.90
2023-09-03T06:45:01.552Z,61.92
2023-09-03T06:50:52.107Z,43.25
2023-09-03T06:56:48.840Z,43.90
2023-09-03T07:02:38.931Z,48.95
2023-09-03T07:08:32.961Z,48.58
2023-09-03T07:14:22.084Z,46.13
2023-09-03T07:20:10.356Z,42.33
2023-09-03T07:26:08.175Z,45.33
2023-09-03T07:31:58.363Z,46.17
2023-09-03T07:37:45.703Z,42.10
2023-09-03T07:43:32.467Z,27.58
2023-09-03T07:49:20.248Z,34.90
2023-09-03T07:55:08.142Z,30.30
2023-09-03T08:00:55.938Z,39.45
2023-09-03T08:06:43.143Z,35.33
2023-09-03T08:12:30.629Z,88.38
2023-09-03T08:18:32.902Z,52.35
2023-09-03T08:24:22.172Z,58.55
2023-09-03T08:30:11.365Z,37.05
2023-09-03T08:35:58.932Z,95.28
2023-09-03T08:41:47.068Z,41.65
2023-09-03T08:47:38.969Z,33.55
2023-09-03T08:53:26.210Z,40.97
2023-09-03T08:59:12.919Z,33.00
2023-09-03T09:05:04.370Z,79.38
2023-09-03T09:10:53.020Z,25.77
2023-09-03T09:16:39.655Z,30.70
2023-09-03T09:22:27.331Z,28.38
2023-09-03T09:28:18.566Z,29.02
2023-09-03T09:34:15.535Z,14.77
2023-09-03T09:40:06.753Z,30.25
2023-09-03T09:45:54.536Z,45.63
2023-09-03T09:51:42.234Z,35.47
2023-09-03T09:57:41.385Z,45.00
2023-09-03T10:03:57.168Z,70.03
2023-09-03T10:10:15.127Z,108.57
2023-09-03T10:16:20.264Z,310.85
2023-09-03T10:22:14.754Z,260.55
2023-09-03T10:28:08.518Z,251.50
2023-09-03T10:34:08.076Z,87.18
2023-09-03T10:40:37.506Z,83.25
2023-09-03T10:46:30.544Z,36.28
2023-09-03T10:52:36.270Z,77.95
2023-09-03T10:58:34.188Z,44.45
2023-09-03T11:04:38.985Z,83.07
2023-09-03T11:10:26.660Z,106.65
2023-09-03T11:16:16.005Z,7.07
2023-09-03T11:22:08.172Z,6.65
2023-09-03T11:33:52.214Z,7.07
2023-09-03T11:39:39.079Z,6.63
2023-09-03T11:45:34.523Z,683.08
2023-09-03T11:51:29.972Z,424.63
2023-09-03T11:57:17.855Z,436.05
2023-09-03T12:03:06.122Z,344.17
2023-09-03T12:08:53.028Z,837.85
2023-09-03T12:14:42.307Z,756.97
2023-09-03T12:20:40.965Z,612.33
2023-09-03T12:26:27.816Z,560.05
2023-09-03T12:32:18.432Z,543.30
2023-09-03T12:38:07.965Z,409.27
2023-09-03T12:44:08.779Z,501.02
2023-09-03T12:49:58.772Z,789.65
2023-09-03T12:55:48.096Z,723.70
2023-09-03T13:01:42.202Z,718.72
2023-09-03T13:07:31.537Z,730.45
2023-09-03T13:13:23.512Z,838.53
2023-09-03T13:19:15.158Z,681.50
2023-09-03T13:25:02.287Z,728.15
2023-09-03T13:30:57.644Z,761.13
2023-09-03T13:36:59.250Z,704.97
2023-09-03T13:42:49.310Z,755.22
2023-09-03T13:48:37.945Z,726.85
2023-09-03T13:54:24.933Z,869.95
2023-09-03T14:00:13.043Z,868.42
2023-09-03T14:06:08.194Z,866.58
2023-09-03T14:11:55.577Z,854.85
2023-09-03T14:17:42.467Z,835.55
2023-09-03T14:23:31.401Z,858.78
2023-09-03T14:29:20.280Z,800.08
2023-09-03T14:35:11.838Z,810.15
2023-09-03T14:46:46.565Z,826.88
2023-09-03T14:52:34.625Z,769.58
2023-09-03T14:58:24.734Z,737.33
2023-09-03T15:04:11.967Z,756.38
2023-09-03T15:10:07.491Z,807.40
2023-09-03T15:15:58.120Z,624.70
2023-09-03T15:21:46.436Z,531.20
2023-09-03T15:33:42.551Z,695.92
2023-09-03T15:40:09.340Z,729.38
2023-09-03T15:46:22.134Z,725.92
2023-09-03T16:00:05.763Z,827.50
2023-09-03T16:06:34.629Z,747.45
2023-09-03T16:13:45.638Z,841.95
2023-09-03T16:21:41.482Z,704.58
2023-09-03T16:27:19.235Z,673.92
2023-09-03T16:33:09.875Z,580.88
2023-09-03T16:38:59.978Z,593.78
2023-09-03T16:44:46.810Z,697.42
2023-09-03T16:50:37.141Z,679.80
2023-09-03T16:56:24.210Z,661.97
2023-09-03T17:02:13.553Z,657.22
2023-09-03T17:08:02.704Z,642.80
2023-09-03T17:13:49.717Z,695.65
2023-09-03T17:19:37.651Z,639.85
2023-09-03T17:25:35.837Z,561.55
2023-09-03T17:31:27.871Z,603.00
2023-09-03T17:37:15.083Z,714.10
2023-09-03T17:43:04.466Z,526.15
2023-09-03T17:48:52.046Z,568.83
2023-09-03T17:54:39.034Z,552.35
2023-09-03T18:00:27.458Z,538.17
2023-09-03T18:06:14.587Z,384.35
2023-09-03T18:12:03.937Z,535.90
2023-09-03T18:17:51.120Z,484.23
2023-09-03T18:23:40.640Z,391.40
2023-09-03T18:35:18.403Z,334.30
2023-09-03T18:41:13.076Z,355.27
2023-09-03T18:47:02.647Z,290.95
2023-09-03T18:53:04.352Z,361.98
2023-09-03T18:58:51.672Z,370.33
2023-09-03T19:04:38.840Z,287.42
2023-09-03T19:10:27.069Z,302.67
2023-09-03T19:16:21.317Z,326.98
2023-09-03T19:22:10.506Z,306.75
2023-09-03T19:28:00.062Z,286.20
2023-09-03T19:33:46.797Z,284.40
2023-09-03T19:39:33.571Z,346.02
2023-09-03T19:45:22.459Z,304.23
2023-09-03T19:51:09.430Z,239.48
2023-09-03T19:56:58.833Z,177.93
2023-09-03T20:02:45.763Z,210.65
2023-09-03T20:08:32.839Z,52.67
2023-09-03T20:14:19.595Z,18.83
2023-09-03T20:20:08.061Z,276.83
2023-09-03T20:33:14.533Z,169.65
2023-09-03T20:40:18.547Z,422.02
2023-09-03T20:46:02.019Z,22.05
2023-09-03T20:52:03.753Z,40.63
2023-09-03T20:57:50.729Z,17.45
2023-09-03T21:03:40.345Z,23.95
2023-09-03T21:09:35.269Z,38.78
2023-09-03T21:15:46.303Z,17.85
2023-09-03T21:21:45.874Z,12.90
2023-09-03T21:27:49.522Z,10.53
2023-09-03T21:33:49.159Z,13.82
2023-09-03T21:39:47.573Z,12.98
2023-09-03T21:45:34.647Z,10.75
2023-09-03T21:51:21.862Z,12.40
2023-09-03T21:57:56.108Z,74.00
2023-09-03T22:03:57.430Z,13.00
2023-09-03T22:18:07.605Z,11.95
2023-09-03T22:23:57.170Z,18.98
2023-09-03T22:29:45.164Z,17.63
2023-09-03T22:35:31.929Z,15.93
2023-09-03T22:41:19.017Z,17.90
2023-09-03T22:55:04.951Z,43.00
2023-09-03T23:00:52.370Z,45.65
2023-09-03T23:06:39.181Z,53.85
2023-09-03T23:13:37.279Z,68.80
2023-09-03T23:19:24.115Z,63.20
2023-09-03T23:25:10.848Z,36.13
2023-09-03T23:30:57.715Z,34.42
2023-09-03T23:36:44.945Z,33.28
2023-09-03T23:42:31.731Z,34.95
2023-09-03T23:48:21.254Z,28.75
2023-09-03T23:54:10.855Z,40.47
2023-09-03T23:59:58.343Z,27.70
